sensor_id;sensor_type;location;lat;lon;timestamp;P1;durP1;ratioP1;P2;durP2;ratioP2
77168;SDS011;66281;45.114;20.730;2024-01-30T00:00:33;39.35;;;19.10;;
77168;SDS011;66281;45.114;20.730;2024-01-30T00:10:34;46.23;;;19.43;;
77168;SDS011;66281;45.114;20.730;2024-01-30T00:20:37;38.80;;;18.73;;
77168;SDS011;66281;45.114;20.730;2024-01-30T00:30:38;52.95;;;25.48;;
77168;SDS011;66281;45.114;20.730;2024-01-30T00:40:40;37.88;;;18.10;;
77168;SDS011;66281;45.114;20.730;2024-01-30T00:50:41;24.90;;;13.23;;
77168;SDS011;66281;45.114;20.730;2024-01-30T01:00:42;21.63;;;11.90;;
77168;SDS011;66281;45.114;20.730;2024-01-30T01:10:44;26.15;;;12.40;;
77168;SDS011;66281;45.114;20.730;2024-01-30T01:20:45;26.43;;;12.60;;
77168;SDS011;66281;45.114;20.730;2024-01-30T01:30:46;26.27;;;11.10;;
77168;SDS011;66281;45.114;20.730;2024-01-30T01:40:48;24.13;;;12.10;;
77168;SDS011;66281;45.114;20.730;2024-01-30T01:50:49;31.47;;;12.83;;
77168;SDS011;66281;45.114;20.730;2024-01-30T02:00:50;22.70;;;10.57;;
77168;SDS011;66281;45.114;20.730;2024-01-30T02:10:52;24.60;;;9.85;;
77168;SDS011;66281;45.114;20.730;2024-01-30T02:20:54;16.00;;;7.90;;
77168;SDS011;66281;45.114;20.730;2024-01-30T02:30:57;17.17;;;7.90;;
77168;SDS011;66281;45.114;20.730;2024-01-30T02:40:58;16.13;;;8.67;;
77168;SDS011;66281;45.114;20.730;2024-01-30T02:51:00;19.63;;;9.18;;
77168;SDS011;66281;45.114;20.730;2024-01-30T03:01:01;18.83;;;8.83;;
77168;SDS011;66281;45.114;20.730;2024-01-30T03:11:02;19.80;;;9.50;;
77168;SDS011;66281;45.114;20.730;2024-01-30T03:21:04;42.50;;;16.08;;
77168;SDS011;66281;45.114;20.730;2024-01-30T03:31:05;43.07;;;19.77;;
77168;SDS011;66281;45.114;20.730;2024-01-30T03:41:09;26.47;;;12.57;;
77168;SDS011;66281;45.114;20.730;2024-01-30T03:51:11;23.77;;;10.50;;
77168;SDS011;66281;45.114;20.730;2024-01-30T04:01:16;32.67;;;12.70;;
77168;SDS011;66281;45.114;20.730;2024-01-30T04:11:18;20.83;;;10.43;;
77168;SDS011;66281;45.114;20.730;2024-01-30T04:21:20;22.77;;;10.43;;
77168;SDS011;66281;45.114;20.730;2024-01-30T04:31:23;20.17;;;9.70;;
77168;SDS011;66281;45.114;20.730;2024-01-30T04:41:24;26.67;;;11.63;;
77168;SDS011;66281;45.114;20.730;2024-01-30T04:51:27;20.90;;;11.03;;
77168;SDS011;66281;45.114;20.730;2024-01-30T05:01:28;18.58;;;9.65;;
77168;SDS011;66281;45.114;20.730;2024-01-30T05:11:29;16.47;;;8.23;;
77168;SDS011;66281;45.114;20.730;2024-01-30T05:21:31;14.90;;;7.53;;
77168;SDS011;66281;45.114;20.730;2024-01-30T05:31:32;16.45;;;7.47;;
77168;SDS011;66281;45.114;20.730;2024-01-30T05:41:35;22.25;;;9.48;;
77168;SDS011;66281;45.114;20.730;2024-01-30T05:51:36;16.10;;;9.83;;
77168;SDS011;66281;45.114;20.730;2024-01-30T06:01:37;23.60;;;9.97;;
77168;SDS011;66281;45.114;20.730;2024-01-30T06:11:39;16.88;;;8.75;;
77168;SDS011;66281;45.114;20.730;2024-01-30T06:21:40;26.77;;;14.13;;
77168;SDS011;66281;45.114;20.730;2024-01-30T06:31:41;23.37;;;12.00;;
77168;SDS011;66281;45.114;20.730;2024-01-30T06:41:43;16.75;;;9.60;;
77168;SDS011;66281;45.114;20.730;2024-01-30T06:51:47;28.47;;;16.70;;
77168;SDS011;66281;45.114;20.730;2024-01-30T07:01:48;19.57;;;10.87;;
77168;SDS011;66281;45.114;20.730;2024-01-30T07:11:49;18.63;;;8.27;;
77168;SDS011;66281;45.114;20.730;2024-01-30T07:21:51;72.10;;;23.75;;
77168;SDS011;66281;45.114;20.730;2024-01-30T07:31:52;27.17;;;13.07;;
77168;SDS011;66281;45.114;20.730;2024-01-30T07:41:54;22.83;;;12.00;;
77168;SDS011;66281;45.114;20.730;2024-01-30T07:51:55;29.60;;;21.38;;
77168;SDS011;66281;45.114;20.730;2024-01-30T08:01:56;31.33;;;17.00;;
77168;SDS011;66281;45.114;20.730;2024-01-30T08:11:58;110.30;;;33.50;;
77168;SDS011;66281;45.114;20.730;2024-01-30T08:21:59;41.53;;;18.85;;
77168;SDS011;66281;45.114;20.730;2024-01-30T08:32:01;21.83;;;11.97;;
77168;SDS011;66281;45.114;20.730;2024-01-30T08:42:02;24.50;;;13.07;;
77168;SDS011;66281;45.114;20.730;2024-01-30T08:52:04;17.95;;;8.23;;
77168;SDS011;66281;45.114;20.730;2024-01-30T09:02:07;12.93;;;5.97;;
77168;SDS011;66281;45.114;20.730;2024-01-30T09:12:10;15.20;;;6.83;;
77168;SDS011;66281;45.114;20.730;2024-01-30T09:22:12;17.43;;;8.47;;
77168;SDS011;66281;45.114;20.730;2024-01-30T09:32:14;14.70;;;7.38;;
77168;SDS011;66281;45.114;20.730;2024-01-30T09:42:28;17.50;;;7.87;;
77168;SDS011;66281;45.114;20.730;2024-01-30T09:52:36;14.10;;;7.07;;
77168;SDS011;66281;45.114;20.730;2024-01-30T10:02:38;13.07;;;7.38;;
77168;SDS011;66281;45.114;20.730;2024-01-30T10:12:43;28.07;;;11.77;;
77168;SDS011;66281;45.114;20.730;2024-01-30T10:22:45;65.80;;;21.90;;
77168;SDS011;66281;45.114;20.730;2024-01-30T10:32:48;22.50;;;11.77;;
77168;SDS011;66281;45.114;20.730;2024-01-30T10:42:50;17.45;;;8.15;;
77168;SDS011;66281;45.114;20.730;2024-01-30T10:52:54;11.17;;;6.67;;
77168;SDS011;66281;45.114;20.730;2024-01-30T11:02:56;11.17;;;6.10;;
77168;SDS011;66281;45.114;20.730;2024-01-30T11:12:57;11.73;;;6.53;;
77168;SDS011;66281;45.114;20.730;2024-01-30T11:22:59;15.83;;;8.47;;
77168;SDS011;66281;45.114;20.730;2024-01-30T11:43:09;25.42;;;12.68;;
77168;SDS011;66281;45.114;20.730;2024-01-30T11:53:11;15.13;;;7.93;;
77168;SDS011;66281;45.114;20.730;2024-01-30T12:03:12;12.67;;;7.67;;
77168;SDS011;66281;45.114;20.730;2024-01-30T12:13:13;16.13;;;9.45;;
77168;SDS011;66281;45.114;20.730;2024-01-30T12:23:15;20.58;;;8.93;;
77168;SDS011;66281;45.114;20.730;2024-01-30T12:33:17;18.20;;;9.33;;
77168;SDS011;66281;45.114;20.730;2024-01-30T12:43:19;30.90;;;13.00;;
77168;SDS011;66281;45.114;20.730;2024-01-30T12:53:20;17.85;;;10.05;;
77168;SDS011;66281;45.114;20.730;2024-01-30T13:03:22;28.63;;;13.73;;
77168;SDS011;66281;45.114;20.730;2024-01-30T13:13:23;13.93;;;7.30;;
77168;SDS011;66281;45.114;20.730;2024-01-30T13:23:25;15.15;;;7.97;;
77168;SDS011;66281;45.114;20.730;2024-01-30T13:33:26;11.87;;;7.03;;
77168;SDS011;66281;45.114;20.730;2024-01-30T13:43:28;28.87;;;11.93;;
77168;SDS011;66281;45.114;20.730;2024-01-30T13:53:30;15.48;;;7.95;;
77168;SDS011;66281;45.114;20.730;2024-01-30T14:03:32;36.30;;;21.17;;
77168;SDS011;66281;45.114;20.730;2024-01-30T14:13:33;21.27;;;11.00;;
77168;SDS011;66281;45.114;20.730;2024-01-30T14:23:35;17.70;;;10.43;;
77168;SDS011;66281;45.114;20.730;2024-01-30T14:33:36;25.50;;;14.07;;
77168;SDS011;66281;45.114;20.730;2024-01-30T14:43:38;20.60;;;13.63;;
77168;SDS011;66281;45.114;20.730;2024-01-30T14:53:40;23.70;;;10.73;;
77168;SDS011;66281;45.114;20.730;2024-01-30T15:03:41;31.55;;;15.43;;
77168;SDS011;66281;45.114;20.730;2024-01-30T15:13:44;45.30;;;20.07;;
77168;SDS011;66281;45.114;20.730;2024-01-30T15:23:45;64.83;;;26.20;;
77168;SDS011;66281;45.114;20.730;2024-01-30T15:33:47;67.63;;;31.40;;
77168;SDS011;66281;45.114;20.730;2024-01-30T15:43:48;70.47;;;33.10;;
77168;SDS011;66281;45.114;20.730;2024-01-30T15:53:50;117.73;;;50.33;;
77168;SDS011;66281;45.114;20.730;2024-01-30T16:03:51;133.00;;;53.97;;
77168;SDS011;66281;45.114;20.730;2024-01-30T16:13:53;143.88;;;58.78;;
77168;SDS011;66281;45.114;20.730;2024-01-30T16:23:55;133.07;;;56.17;;
77168;SDS011;66281;45.114;20.730;2024-01-30T16:33:56;132.33;;;56.37;;
77168;SDS011;66281;45.114;20.730;2024-01-30T16:44:01;157.40;;;62.67;;
77168;SDS011;66281;45.114;20.730;2024-01-30T16:54:02;182.73;;;72.20;;
77168;SDS011;66281;45.114;20.730;2024-01-30T17:04:04;185.93;;;75.17;;
77168;SDS011;66281;45.114;20.730;2024-01-30T17:14:05;174.20;;;71.65;;
77168;SDS011;66281;45.114;20.730;2024-01-30T17:24:08;181.15;;;73.82;;
77168;SDS011;66281;45.114;20.730;2024-01-30T17:34:10;168.50;;;71.07;;
77168;SDS011;66281;45.114;20.730;2024-01-30T17:44:12;143.43;;;58.70;;
77168;SDS011;66281;45.114;20.730;2024-01-30T17:54:15;151.98;;;62.35;;
77168;SDS011;66281;45.114;20.730;2024-01-30T18:04:17;106.27;;;42.67;;
77168;SDS011;66281;45.114;20.730;2024-01-30T18:14:19;56.90;;;27.37;;
77168;SDS011;66281;45.114;20.730;2024-01-30T18:24:21;36.75;;;19.95;;
77168;SDS011;66281;45.114;20.730;2024-01-30T18:34:23;27.60;;;13.00;;
77168;SDS011;66281;45.114;20.730;2024-01-30T18:44:26;37.93;;;17.03;;
77168;SDS011;66281;45.114;20.730;2024-01-30T18:54:28;36.45;;;16.95;;
77168;SDS011;66281;45.114;20.730;2024-01-30T19:04:30;55.15;;;24.80;;
77168;SDS011;66281;45.114;20.730;2024-01-30T19:14:31;57.83;;;25.37;;
77168;SDS011;66281;45.114;20.730;2024-01-30T19:24:35;49.20;;;23.07;;
77168;SDS011;66281;45.114;20.730;2024-01-30T19:34:37;43.05;;;20.85;;
77168;SDS011;66281;45.114;20.730;2024-01-30T19:44:40;39.00;;;17.90;;
77168;SDS011;66281;45.114;20.730;2024-01-30T19:54:44;41.87;;;21.07;;
77168;SDS011;66281;45.114;20.730;2024-01-30T20:04:46;40.92;;;21.08;;
77168;SDS011;66281;45.114;20.730;2024-01-30T20:14:48;42.67;;;20.73;;
77168;SDS011;66281;45.114;20.730;2024-01-30T20:24:50;33.30;;;15.40;;
77168;SDS011;66281;45.114;20.730;2024-01-30T20:34:55;23.17;;;12.73;;
77168;SDS011;66281;45.114;20.730;2024-01-30T20:45:01;27.17;;;14.57;;
77168;SDS011;66281;45.114;20.730;2024-01-30T20:55:05;44.93;;;19.83;;
77168;SDS011;66281;45.114;20.730;2024-01-30T21:05:06;47.00;;;22.43;;
77168;SDS011;66281;45.114;20.730;2024-01-30T21:15:08;41.97;;;19.55;;
77168;SDS011;66281;45.114;20.730;2024-01-30T21:25:11;37.67;;;19.43;;
77168;SDS011;66281;45.114;20.730;2024-01-30T21:35:12;62.37;;;25.43;;
77168;SDS011;66281;45.114;20.730;2024-01-30T21:45:14;252.90;;;71.57;;
77168;SDS011;66281;45.114;20.730;2024-01-30T21:55:15;194.00;;;61.83;;
77168;SDS011;66281;45.114;20.730;2024-01-30T22:05:17;202.87;;;61.87;;
77168;SDS011;66281;45.114;20.730;2024-01-30T22:15:18;175.07;;;64.35;;
77168;SDS011;66281;45.114;20.730;2024-01-30T22:25:20;91.65;;;38.95;;
77168;SDS011;66281;45.114;20.730;2024-01-30T22:35:21;41.53;;;19.13;;
77168;SDS011;66281;45.114;20.730;2024-01-30T22:45:22;29.77;;;14.17;;
77168;SDS011;66281;45.114;20.730;2024-01-30T22:55:24;20.20;;;11.05;;
77168;SDS011;66281;45.114;20.730;2024-01-30T23:05:25;18.17;;;9.00;;
77168;SDS011;66281;45.114;20.730;2024-01-30T23:15:27;26.00;;;11.37;;
77168;SDS011;66281;45.114;20.730;2024-01-30T23:25:28;26.00;;;12.45;;
77168;SDS011;66281;45.114;20.730;2024-01-30T23:35:29;26.53;;;12.73;;
77168;SDS011;66281;45.114;20.730;2024-01-30T23:45:31;25.47;;;12.17;;
77168;SDS011;66281;45.114;20.730;2024-01-30T23:55:32;26.33;;;12.43;;
